sensor_id;sensor_type;location;lat;lon;timestamp;pressure;altitude;pressure_sealevel;temperature;humidity
13456;BME280;6800;50.940;6.940;2022-12-20T00:03:56;100882.03;;;22.06;37.67
13456;BME280;6800;50.940;6.940;2022-12-20T00:07:56;100873.69;;;22.52;36.88
13456;BME280;6800;50.940;6.940;2022-12-20T00:11:56;100869.41;;;22.59;37.11
13456;BME280;6800;50.940;6.940;2022-12-20T00:16:14;100860.56;;;22.59;36.61
13456;BME280;6800;50.940;6.940;2022-12-20T00:20:20;100857.38;;;21.96;37.80
13456;BME280;6800;50.940;6.940;2022-12-20T00:24:20;100838.88;;;22.12;37.78
13456;BME280;6800;50.940;6.940;2022-12-20T00:28:21;100838.06;;;21.94;38.50
13456;BME280;6800;50.940;6.940;2022-12-20T00:32:21;100824.66;;;21.77;39.06
13456;BME280;6800;50.940;6.940;2022-12-20T00:36:23;100812.81;;;21.72;39.82
13456;BME280;6800;50.940;6.940;2022-12-20T00:40:23;100826.31;;;21.78;40.50
13456;BME280;6800;50.940;6.940;2022-12-20T00:44:24;100832.84;;;22.10;39.91
13456;BME280;6800;50.940;6.940;2022-12-20T00:48:24;100832.53;;;21.44;41.33
13456;BME280;6800;50.940;6.940;2022-12-20T00:52:25;100829.56;;;21.47;41.13
13456;BME280;6800;50.940;6.940;2022-12-20T00:56:25;100834.28;;;21.18;40.95
13456;BME280;6800;50.940;6.940;2022-12-20T01:00:26;100844.53;;;21.91;39.96
13456;BME280;6800;50.940;6.940;2022-12-20T01:04:26;100859.50;;;21.92;40.16
13456;BME280;6800;50.940;6.940;2022-12-20T01:08:28;100858.00;;;21.90;39.93
13456;BME280;6800;50.940;6.940;2022-12-20T01:12:28;100867.19;;;21.77;39.89
13456;BME280;6800;50.940;6.940;2022-12-20T01:16:37;100863.19;;;21.56;40.35
13456;BME280;6800;50.940;6.940;2022-12-20T01:20:38;100860.53;;;21.99;39.38
13456;BME280;6800;50.940;6.940;2022-12-20T01:24:38;100842.72;;;21.74;39.76
13456;BME280;6800;50.940;6.940;2022-12-20T01:28:41;100839.00;;;21.85;39.50
13456;BME280;6800;50.940;6.940;2022-12-20T01:32:41;100843.25;;;21.77;39.88
13456;BME280;6800;50.940;6.940;2022-12-20T01:36:41;100834.78;;;21.39;40.59
13456;BME280;6800;50.940;6.940;2022-12-20T01:40:42;100841.13;;;21.63;39.94
13456;BME280;6800;50.940;6.940;2022-12-20T01:48:48;100834.28;;;21.35;40.40
13456;BME280;6800;50.940;6.940;2022-12-20T01:52:50;100841.41;;;21.78;39.53
13456;BME280;6800;50.940;6.940;2022-12-20T01:56:56;100840.78;;;21.41;40.51
13456;BME280;6800;50.940;6.940;2022-12-20T02:00:57;100848.38;;;21.53;39.54
13456;BME280;6800;50.940;6.940;2022-12-20T02:04:58;100834.47;;;21.07;41.30
13456;BME280;6800;50.940;6.940;2022-12-20T02:08:59;100837.16;;;21.24;41.23
13456;BME280;6800;50.940;6.940;2022-12-20T02:13:07;100833.00;;;21.83;40.26
13456;BME280;6800;50.940;6.940;2022-12-20T02:21:29;100810.00;;;21.30;41.39
13456;BME280;6800;50.940;6.940;2022-12-20T02:30:05;100799.50;;;21.90;39.70
13456;BME280;6800;50.940;6.940;2022-12-20T02:34:07;100804.34;;;21.51;40.97
13456;BME280;6800;50.940;6.940;2022-12-20T02:38:33;100811.06;;;21.37;40.95
13456;BME280;6800;50.940;6.940;2022-12-20T02:42:33;100815.91;;;21.07;41.25
13456;BME280;6800;50.940;6.940;2022-12-20T02:46:34;100795.69;;;20.96;41.95
13456;BME280;6800;50.940;6.940;2022-12-20T02:50:45;100799.19;;;20.25;43.30
13456;BME280;6800;50.940;6.940;2022-12-20T02:54:48;100790.75;;;20.83;42.62
13456;BME280;6800;50.940;6.940;2022-12-20T03:03:04;100806.06;;;20.72;42.37
13456;BME280;6800;50.940;6.940;2022-12-20T03:07:23;100808.34;;;20.84;42.22
13456;BME280;6800;50.940;6.940;2022-12-20T03:11:25;100784.63;;;20.29;43.63
13456;BME280;6800;50.940;6.940;2022-12-20T03:15:25;100784.94;;;20.53;43.17
13456;BME280;6800;50.940;6.940;2022-12-20T03:19:25;100788.63;;;20.42;43.05
13456;BME280;6800;50.940;6.940;2022-12-20T03:23:26;100778.47;;;20.82;42.24
13456;BME280;6800;50.940;6.940;2022-12-20T03:27:26;100784.78;;;20.54;42.97
13456;BME280;6800;50.940;6.940;2022-12-20T03:31:27;100783.09;;;20.36;43.32
13456;BME280;6800;50.940;6.940;2022-12-20T03:35:27;100781.94;;;20.83;41.91
13456;BME280;6800;50.940;6.940;2022-12-20T03:39:27;100775.59;;;20.76;42.00
13456;BME280;6800;50.940;6.940;2022-12-20T03:43:28;100779.47;;;20.99;41.74
13456;BME280;6800;50.940;6.940;2022-12-20T03:47:28;100795.94;;;21.38;41.02
13456;BME280;6800;50.940;6.940;2022-12-20T03:51:29;100798.69;;;21.28;41.07
13456;BME280;6800;50.940;6.940;2022-12-20T03:55:29;100791.84;;;21.26;41.23
13456;BME280;6800;50.940;6.940;2022-12-20T03:59:29;100797.88;;;20.65;42.65
13456;BME280;6800;50.940;6.940;2022-12-20T04:03:29;100810.38;;;21.18;41.83
13456;BME280;6800;50.940;6.940;2022-12-20T04:07:30;100806.81;;;20.99;42.68
13456;BME280;6800;50.940;6.940;2022-12-20T04:11:30;100803.25;;;21.18;42.28
13456;BME280;6800;50.940;6.940;2022-12-20T04:15:30;100801.88;;;21.14;41.95
13456;BME280;6800;50.940;6.940;2022-12-20T04:19:30;100799.22;;;21.14;42.58
13456;BME280;6800;50.940;6.940;2022-12-20T04:23:31;100803.34;;;20.81;43.74
13456;BME280;6800;50.940;6.940;2022-12-20T04:27:31;100789.66;;;21.04;42.64
13456;BME280;6800;50.940;6.940;2022-12-20T04:31:32;100787.25;;;20.65;44.31
13456;BME280;6800;50.940;6.940;2022-12-20T04:35:32;100779.31;;;20.56;44.71
13456;BME280;6800;50.940;6.940;2022-12-20T04:39:32;100785.28;;;20.85;43.84
13456;BME280;6800;50.940;6.940;2022-12-20T04:43:32;100784.91;;;20.80;43.88
13456;BME280;6800;50.940;6.940;2022-12-20T04:47:33;100785.97;;;20.87;43.78
13456;BME280;6800;50.940;6.940;2022-12-20T04:51:33;100766.25;;;20.72;44.12
13456;BME280;6800;50.940;6.940;2022-12-20T04:55:39;100765.34;;;20.81;43.99
13456;BME280;6800;50.940;6.940;2022-12-20T04:59:40;100766.16;;;20.37;44.93
13456;BME280;6800;50.940;6.940;2022-12-20T05:03:40;100754.44;;;20.39;44.69
13456;BME280;6800;50.940;6.940;2022-12-20T05:07:40;100752.88;;;20.64;44.72
13456;BME280;6800;50.940;6.940;2022-12-20T05:11:41;100754.66;;;20.73;44.03
13456;BME280;6800;50.940;6.940;2022-12-20T05:15:41;100751.84;;;20.92;43.25
13456;BME280;6800;50.940;6.940;2022-12-20T05:19:42;100759.22;;;20.53;43.88
13456;BME280;6800;50.940;6.940;2022-12-20T05:23:42;100747.69;;;20.89;42.80
13456;BME280;6800;50.940;6.940;2022-12-20T05:28:01;100734.91;;;21.03;42.53
13456;BME280;6800;50.940;6.940;2022-12-20T05:32:02;100730.84;;;20.63;42.94
13456;BME280;6800;50.940;6.940;2022-12-20T05:36:02;100730.38;;;20.68;43.30
13456;BME280;6800;50.940;6.940;2022-12-20T05:40:03;100721.00;;;20.73;42.94
13456;BME280;6800;50.940;6.940;2022-12-20T05:44:05;100722.88;;;20.81;42.85
13456;BME280;6800;50.940;6.940;2022-12-20T05:48:05;100721.97;;;20.55;43.27
13456;BME280;6800;50.940;6.940;2022-12-20T05:52:06;100703.78;;;20.77;42.80
13456;BME280;6800;50.940;6.940;2022-12-20T05:56:06;100713.47;;;20.69;42.97
13456;BME280;6800;50.940;6.940;2022-12-20T06:00:08;100714.84;;;20.73;43.19
13456;BME280;6800;50.940;6.940;2022-12-20T06:04:08;100704.16;;;20.65;42.54
13456;BME280;6800;50.940;6.940;2022-12-20T06:08:09;100713.66;;;20.40;43.36
13456;BME280;6800;50.940;6.940;2022-12-20T06:12:09;100699.75;;;20.91;42.02
13456;BME280;6800;50.940;6.940;2022-12-20T06:16:09;100685.56;;;21.00;41.88
13456;BME280;6800;50.940;6.940;2022-12-20T06:20:10;100688.38;;;20.46;43.34
13456;BME280;6800;50.940;6.940;2022-12-20T06:24:11;100698.47;;;20.60;42.56
13456;BME280;6800;50.940;6.940;2022-12-20T06:28:11;100696.66;;;20.78;42.49
13456;BME280;6800;50.940;6.940;2022-12-20T06:32:12;100711.16;;;20.39;42.78
13456;BME280;6800;50.940;6.940;2022-12-20T06:36:12;100702.72;;;20.26;43.73
13456;BME280;6800;50.940;6.940;2022-12-20T06:40:12;100714.34;;;20.15;43.79
13456;BME280;6800;50.940;6.940;2022-12-20T06:44:13;100709.19;;;20.41;42.64
13456;BME280;6800;50.940;6.940;2022-12-20T06:48:13;100690.81;;;20.74;42.54
13456;BME280;6800;50.940;6.940;2022-12-20T06:52:13;100691.13;;;20.71;42.38
13456;BME280;6800;50.940;6.940;2022-12-20T06:56:14;100691.03;;;20.18;43.13
13456;BME280;6800;50.940;6.940;2022-12-20T07:00:15;100678.81;;;20.35;42.97
13456;BME280;6800;50.940;6.940;2022-12-20T07:04:15;100684.59;;;20.48;42.65
13456;BME280;6800;50.940;6.940;2022-12-20T07:08:15;100661.66;;;21.00;42.06
13456;BME280;6800;50.940;6.940;2022-12-20T07:12:16;100673.97;;;20.66;42.41
13456;BME280;6800;50.940;6.940;2022-12-20T07:16:16;100665.84;;;20.85;41.88
13456;BME280;6800;50.940;6.940;2022-12-20T07:20:17;100661.56;;;20.84;41.81
13456;BME280;6800;50.940;6.940;2022-12-20T07:24:17;100646.69;;;20.56;42.23
13456;BME280;6800;50.940;6.940;2022-12-20T07:28:18;100652.41;;;20.16;42.99
13456;BME280;6800;50.940;6.940;2022-12-20T07:32:18;100636.78;;;20.58;42.23
13456;BME280;6800;50.940;6.940;2022-12-20T07:36:18;100637.50;;;19.88;43.39
13456;BME280;6800;50.940;6.940;2022-12-20T07:40:19;100659.34;;;20.27;42.98
13456;BME280;6800;50.940;6.940;2022-12-20T07:44:19;100651.84;;;20.75;41.85
13456;BME280;6800;50.940;6.940;2022-12-20T07:48:19;100648.75;;;20.44;42.82
13456;BME280;6800;50.940;6.940;2022-12-20T07:52:22;100660.31;;;20.78;42.08
13456;BME280;6800;50.940;6.940;2022-12-20T07:56:24;100659.50;;;20.25;43.40
13456;BME280;6800;50.940;6.940;2022-12-20T08:00:25;100648.22;;;20.23;43.34
13456;BME280;6800;50.940;6.940;2022-12-20T08:04:26;100644.34;;;20.35;43.07
13456;BME280;6800;50.940;6.940;2022-12-20T08:08:30;100633.16;;;20.59;42.63
13456;BME280;6800;50.940;6.940;2022-12-20T08:12:31;100638.91;;;20.54;42.86
13456;BME280;6800;50.940;6.940;2022-12-20T08:16:32;100642.41;;;20.55;42.77
13456;BME280;6800;50.940;6.940;2022-12-20T08:20:32;100642.59;;;20.79;42.18
13456;BME280;6800;50.940;6.940;2022-12-20T08:24:33;100638.91;;;21.15;41.25
13456;BME280;6800;50.940;6.940;2022-12-20T08:28:33;100651.53;;;21.39;41.18
13456;BME280;6800;50.940;6.940;2022-12-20T08:32:34;100640.78;;;20.79;41.78
13456;BME280;6800;50.940;6.940;2022-12-20T08:36:35;100647.94;;;21.22;41.15
13456;BME280;6800;50.940;6.940;2022-12-20T08:40:35;100637.09;;;21.16;41.37
13456;BME280;6800;50.940;6.940;2022-12-20T08:44:35;100635.75;;;21.12;41.18
13456;BME280;6800;50.940;6.940;2022-12-20T08:48:36;100646.88;;;21.41;40.55
13456;BME280;6800;50.940;6.940;2022-12-20T08:52:36;100644.91;;;21.76;39.94
13456;BME280;6800;50.940;6.940;2022-12-20T08:56:36;100645.53;;;21.70;40.03
13456;BME280;6800;50.940;6.940;2022-12-20T09:00:36;100641.81;;;21.55;40.43
13456;BME280;6800;50.940;6.940;2022-12-20T09:04:37;100645.19;;;21.65;40.21
13456;BME280;6800;50.940;6.940;2022-12-20T09:08:38;100639.19;;;21.63;40.11
13456;BME280;6800;50.940;6.940;2022-12-20T09:12:39;100642.25;;;21.76;39.89
13456;BME280;6800;50.940;6.940;2022-12-20T09:16:39;100642.00;;;21.28;40.79
13456;BME280;6800;50.940;6.940;2022-12-20T09:20:43;100639.19;;;21.30;40.82
13456;BME280;6800;50.940;6.940;2022-12-20T09:24:44;100644.94;;;21.25;40.98
13456;BME280;6800;50.940;6.940;2022-12-20T09:28:46;100644.06;;;21.17;41.17
13456;BME280;6800;50.940;6.940;2022-12-20T09:32:47;100643.25;;;21.42;41.51
13456;BME280;6800;50.940;6.940;2022-12-20T09:36:47;100640.47;;;21.26;41.87
13456;BME280;6800;50.940;6.940;2022-12-20T09:45:08;100627.09;;;21.61;41.42
13456;BME280;6800;50.940;6.940;2022-12-20T10:02:08;100624.09;;;21.64;41.07
13456;BME280;6800;50.940;6.940;2022-12-20T10:10:54;100609.13;;;21.97;40.70
13456;BME280;6800;50.940;6.940;2022-12-20T10:24:16;100610.81;;;22.06;40.28
13456;BME280;6800;50.940;6.940;2022-12-20T10:28:15;100599.38;;;22.13;40.24
13456;BME280;6800;50.940;6.940;2022-12-20T10:32:19;100597.50;;;21.98;40.63
13456;BME280;6800;50.940;6.940;2022-12-20T10:44:28;100574.09;;;21.67;41.02
13456;BME280;6800;50.940;6.940;2022-12-20T10:48:35;100575.16;;;21.41;41.54
13456;BME280;6800;50.940;6.940;2022-12-20T10:52:35;100565.34;;;21.33;41.44
13456;BME280;6800;50.940;6.940;2022-12-20T10:56:36;100578.78;;;21.06;42.40
13456;BME280;6800;50.940;6.940;2022-12-20T11:00:37;100563.72;;;21.48;41.43
13456;BME280;6800;50.940;6.940;2022-12-20T11:04:37;100550.41;;;20.81;42.87
13456;BME280;6800;50.940;6.940;2022-12-20T11:08:39;100555.69;;;21.24;42.33
13456;BME280;6800;50.940;6.940;2022-12-20T11:12:51;100541.72;;;20.96;42.70
13456;BME280;6800;50.940;6.940;2022-12-20T11:16:52;100541.06;;;21.62;41.63
13456;BME280;6800;50.940;6.940;2022-12-20T11:21:07;100533.47;;;21.33;41.77
13456;BME280;6800;50.940;6.940;2022-12-20T11:34:07;100537.53;;;21.53;41.19
13456;BME280;6800;50.940;6.940;2022-12-20T11:38:39;100509.63;;;22.23;39.94
13456;BME280;6800;50.940;6.940;2022-12-20T11:47:22;100507.13;;;22.22;39.94
13456;BME280;6800;50.940;6.940;2022-12-20T11:51:37;100508.44;;;22.10;39.95
13456;BME280;6800;50.940;6.940;2022-12-20T11:55:41;100512.09;;;22.49;39.24
13456;BME280;6800;50.940;6.940;2022-12-20T11:59:50;100496.13;;;22.49;39.22
13456;BME280;6800;50.940;6.940;2022-12-20T12:08:02;100498.81;;;22.01;39.97
13456;BME280;6800;50.940;6.940;2022-12-20T12:12:13;100496.66;;;22.20;40.19
13456;BME280;6800;50.940;6.940;2022-12-20T12:16:24;100498.81;;;22.09;40.23
13456;BME280;6800;50.940;6.940;2022-12-20T12:20:51;100491.34;;;22.61;39.79
13456;BME280;6800;50.940;6.940;2022-12-20T12:24:59;100497.16;;;22.32;40.02
13456;BME280;6800;50.940;6.940;2022-12-20T12:29:05;100484.34;;;22.51;39.37
13456;BME280;6800;50.940;6.940;2022-12-20T12:33:23;100479.19;;;22.66;39.30
13456;BME280;6800;50.940;6.940;2022-12-20T12:46:33;100467.03;;;22.80;40.29
13456;BME280;6800;50.940;6.940;2022-12-20T12:50:38;100462.72;;;22.71;40.20
13456;BME280;6800;50.940;6.940;2022-12-20T12:54:42;100456.56;;;22.38;40.35
13456;BME280;6800;50.940;6.940;2022-12-20T12:58:43;100456.22;;;22.65;39.99
13456;BME280;6800;50.940;6.940;2022-12-20T13:02:50;100463.22;;;22.66;39.68
13456;BME280;6800;50.940;6.940;2022-12-20T13:07:00;100457.38;;;22.71;39.66
13456;BME280;6800;50.940;6.940;2022-12-20T13:11:01;100450.06;;;22.57;40.17
13456;BME280;6800;50.940;6.940;2022-12-20T13:23:23;100433.78;;;22.35;40.82
13456;BME280;6800;50.940;6.940;2022-12-20T13:27:37;100432.59;;;22.46;40.15
13456;BME280;6800;50.940;6.940;2022-12-20T13:31:38;100427.13;;;22.56;39.96
13456;BME280;6800;50.940;6.940;2022-12-20T13:35:59;100435.47;;;22.61;39.70
13456;BME280;6800;50.940;6.940;2022-12-20T13:40:00;100435.13;;;22.47;39.82
13456;BME280;6800;50.940;6.940;2022-12-20T13:48:17;100436.09;;;22.71;39.42
13456;BME280;6800;50.940;6.940;2022-12-20T13:52:33;100428.97;;;22.47;39.96
13456;BME280;6800;50.940;6.940;2022-12-20T13:56:50;100426.63;;;22.68;39.67
13456;BME280;6800;50.940;6.940;2022-12-20T14:00:51;100414.63;;;22.72;39.23
13456;BME280;6800;50.940;6.940;2022-12-20T14:04:57;100423.53;;;22.24;39.50
13456;BME280;6800;50.940;6.940;2022-12-20T14:08:58;100415.69;;;22.39;38.99
13456;BME280;6800;50.940;6.940;2022-12-20T14:12:58;100417.09;;;22.74;38.75
13456;BME280;6800;50.940;6.940;2022-12-20T14:17:23;100423.97;;;22.52;39.06
13456;BME280;6800;50.940;6.940;2022-12-20T14:21:25;100428.59;;;22.74;39.27
13456;BME280;6800;50.940;6.940;2022-12-20T14:25:35;100437.22;;;22.76;39.08
13456;BME280;6800;50.940;6.940;2022-12-20T14:29:36;100419.97;;;22.64;39.51
13456;BME280;6800;50.940;6.940;2022-12-20T14:33:40;100403.69;;;22.59;40.17
13456;BME280;6800;50.940;6.940;2022-12-20T14:37:51;100406.19;;;22.44;41.43
13456;BME280;6800;50.940;6.940;2022-12-20T14:41:56;100411.19;;;22.31;41.50
13456;BME280;6800;50.940;6.940;2022-12-20T14:46:12;100418.50;;;22.37;41.25
13456;BME280;6800;50.940;6.940;2022-12-20T14:50:24;100415.19;;;22.43;42.00
13456;BME280;6800;50.940;6.940;2022-12-20T14:54:26;100399.75;;;22.31;42.23
13456;BME280;6800;50.940;6.940;2022-12-20T14:58:29;100391.16;;;21.97;42.49
13456;BME280;6800;50.940;6.940;2022-12-20T15:02:40;100397.09;;;22.15;42.40
13456;BME280;6800;50.940;6.940;2022-12-20T15:06:44;100389.75;;;22.25;41.80
13456;BME280;6800;50.940;6.940;2022-12-20T15:15:13;100390.44;;;22.19;41.78
13456;BME280;6800;50.940;6.940;2022-12-20T15:19:14;100391.88;;;22.37;41.39
13456;BME280;6800;50.940;6.940;2022-12-20T15:23:19;100390.25;;;22.36;40.49
13456;BME280;6800;50.940;6.940;2022-12-20T15:27:20;100390.88;;;22.46;40.90
13456;BME280;6800;50.940;6.940;2022-12-20T15:31:21;100398.50;;;22.58;40.57
13456;BME280;6800;50.940;6.940;2022-12-20T15:35:25;100380.53;;;22.68;40.20
13456;BME280;6800;50.940;6.940;2022-12-20T15:43:44;100385.75;;;22.37;41.07
13456;BME280;6800;50.940;6.940;2022-12-20T15:47:44;100388.44;;;22.37;41.16
13456;BME280;6800;50.940;6.940;2022-12-20T15:51:46;100385.25;;;22.41;40.84
13456;BME280;6800;50.940;6.940;2022-12-20T15:55:49;100383.75;;;22.39;40.93
13456;BME280;6800;50.940;6.940;2022-12-20T15:59:49;100385.63;;;22.14;41.49
13456;BME280;6800;50.940;6.940;2022-12-20T16:08:14;100381.84;;;21.93;42.56
13456;BME280;6800;50.940;6.940;2022-12-20T16:12:20;100378.97;;;22.26;41.70
13456;BME280;6800;50.940;6.940;2022-12-20T16:16:26;100377.13;;;22.35;41.42
13456;BME280;6800;50.940;6.940;2022-12-20T16:24:37;100376.16;;;22.20;41.45
13456;BME280;6800;50.940;6.940;2022-12-20T16:28:38;100373.84;;;22.01;42.01
13456;BME280;6800;50.940;6.940;2022-12-20T16:32:38;100373.00;;;22.24;41.52
13456;BME280;6800;50.940;6.940;2022-12-20T16:36:39;100374.31;;;22.28;41.70
13456;BME280;6800;50.940;6.940;2022-12-20T16:40:39;100373.66;;;22.18;41.57
13456;BME280;6800;50.940;6.940;2022-12-20T16:44:40;100373.59;;;22.42;41.31
13456;BME280;6800;50.940;6.940;2022-12-20T16:48:43;100363.56;;;21.90;42.16
13456;BME280;6800;50.940;6.940;2022-12-20T16:52:44;100375.50;;;22.18;41.29
13456;BME280;6800;50.940;6.940;2022-12-20T16:56:46;100384.09;;;22.36;41.29
13456;BME280;6800;50.940;6.940;2022-12-20T17:00:46;100373.66;;;22.18;41.23
13456;BME280;6800;50.940;6.940;2022-12-20T17:04:46;100367.16;;;22.21;41.94
13456;BME280;6800;50.940;6.940;2022-12-20T17:08:47;100374.84;;;22.16;42.18
13456;BME280;6800;50.940;6.940;2022-12-20T17:12:48;100376.66;;;21.99;42.45
13456;BME280;6800;50.940;6.940;2022-12-20T17:16:48;100375.84;;;21.99;41.99
13456;BME280;6800;50.940;6.940;2022-12-20T17:20:48;100377.84;;;21.97;42.44
13456;BME280;6800;50.940;6.940;2022-12-20T17:28:56;100362.84;;;22.28;42.09
13456;BME280;6800;50.940;6.940;2022-12-20T17:32:57;100360.88;;;21.98;42.98
13456;BME280;6800;50.940;6.940;2022-12-20T17:36:58;100353.25;;;21.87;43.50
13456;BME280;6800;50.940;6.940;2022-12-20T17:40:58;100356.22;;;22.00;43.42
13456;BME280;6800;50.940;6.940;2022-12-20T17:44:58;100351.59;;;21.94;43.73
13456;BME280;6800;50.940;6.940;2022-12-20T17:53:22;100339.44;;;21.99;43.58
13456;BME280;6800;50.940;6.940;2022-12-20T17:57:22;100328.53;;;21.86;43.71
13456;BME280;6800;50.940;6.940;2022-12-20T18:01:27;100333.50;;;22.44;42.57
13456;BME280;6800;50.940;6.940;2022-12-20T18:05:27;100335.72;;;22.32;42.55
13456;BME280;6800;50.940;6.940;2022-12-20T18:13:30;100332.47;;;22.61;42.25
13456;BME280;6800;50.940;6.940;2022-12-20T18:17:31;100326.66;;;22.58;41.84
13456;BME280;6800;50.940;6.940;2022-12-20T18:21:32;100324.31;;;22.54;42.19
13456;BME280;6800;50.940;6.940;2022-12-20T18:25:33;100325.69;;;22.50;42.34
13456;BME280;6800;50.940;6.940;2022-12-20T18:29:33;100330.84;;;22.52;42.18
13456;BME280;6800;50.940;6.940;2022-12-20T18:33:34;100332.69;;;22.51;42.17
13456;BME280;6800;50.940;6.940;2022-12-20T18:37:34;100335.16;;;22.53;42.03
13456;BME280;6800;50.940;6.940;2022-12-20T18:41:34;100334.50;;;22.51;42.11
13456;BME280;6800;50.940;6.940;2022-12-20T18:45:35;100339.34;;;22.39;42.74
13456;BME280;6800;50.940;6.940;2022-12-20T18:49:35;100327.09;;;22.30;42.45
13456;BME280;6800;50.940;6.940;2022-12-20T18:53:38;100330.84;;;22.44;42.14
13456;BME280;6800;50.940;6.940;2022-12-20T18:57:38;100317.69;;;22.50;42.27
13456;BME280;6800;50.940;6.940;2022-12-20T19:01:40;100329.66;;;22.54;41.84
13456;BME280;6800;50.940;6.940;2022-12-20T19:05:41;100332.16;;;22.48;42.19
13456;BME280;6800;50.940;6.940;2022-12-20T19:09:41;100332.06;;;22.41;42.20
13456;BME280;6800;50.940;6.940;2022-12-20T19:13:42;100337.47;;;22.56;41.88
13456;BME280;6800;50.940;6.940;2022-12-20T19:17:42;100332.84;;;22.50;41.90
13456;BME280;6800;50.940;6.940;2022-12-20T19:21:42;100331.50;;;22.46;41.95
13456;BME280;6800;50.940;6.940;2022-12-20T19:25:44;100332.81;;;22.58;41.92
13456;BME280;6800;50.940;6.940;2022-12-20T19:29:44;100329.84;;;22.53;41.90
13456;BME280;6800;50.940;6.940;2022-12-20T19:33:46;100330.84;;;22.44;42.33
13456;BME280;6800;50.940;6.940;2022-12-20T19:37:46;100335.69;;;22.40;42.39
13456;BME280;6800;50.940;6.940;2022-12-20T19:41:47;100330.00;;;22.51;42.66
13456;BME280;6800;50.940;6.940;2022-12-20T19:45:51;100329.22;;;22.43;42.65
13456;BME280;6800;50.940;6.940;2022-12-20T19:49:51;100320.34;;;22.12;43.83
13456;BME280;6800;50.940;6.940;2022-12-20T19:53:52;100322.75;;;22.29;43.42
13456;BME280;6800;50.940;6.940;2022-12-20T19:57:53;100306.53;;;22.08;44.60
13456;BME280;6800;50.940;6.940;2022-12-20T20:01:53;100309.28;;;22.39;43.86
13456;BME280;6800;50.940;6.940;2022-12-20T20:05:54;100315.28;;;22.33;44.24
13456;BME280;6800;50.940;6.940;2022-12-20T20:09:54;100319.91;;;22.39;43.67
13456;BME280;6800;50.940;6.940;2022-12-20T20:13:55;100302.59;;;22.43;43.53
13456;BME280;6800;50.940;6.940;2022-12-20T20:17:55;100299.28;;;22.41;43.76
13456;BME280;6800;50.940;6.940;2022-12-20T20:21:56;100301.66;;;22.28;43.81
13456;BME280;6800;50.940;6.940;2022-12-20T20:25:56;100304.56;;;22.49;43.84
13456;BME280;6800;50.940;6.940;2022-12-20T20:29:56;100305.31;;;22.35;43.95
13456;BME280;6800;50.940;6.940;2022-12-20T20:33:57;100309.03;;;22.57;43.61
13456;BME280;6800;50.940;6.940;2022-12-20T20:37:57;100307.06;;;22.50;43.61
13456;BME280;6800;50.940;6.940;2022-12-20T20:41:57;100308.91;;;22.50;43.70
13456;BME280;6800;50.940;6.940;2022-12-20T20:45:58;100298.94;;;22.44;43.56
13456;BME280;6800;50.940;6.940;2022-12-20T20:49:58;100297.97;;;22.37;43.68
13456;BME280;6800;50.940;6.940;2022-12-20T20:53:58;100293.94;;;22.49;43.47
13456;BME280;6800;50.940;6.940;2022-12-20T20:57:59;100300.28;;;22.40;44.43
13456;BME280;6800;50.940;6.940;2022-12-20T21:01:59;100303.59;;;22.42;43.97
13456;BME280;6800;50.940;6.940;2022-12-20T21:05:59;100294.63;;;22.43;43.39
13456;BME280;6800;50.940;6.940;2022-12-20T21:09:59;100286.59;;;22.51;44.02
13456;BME280;6800;50.940;6.940;2022-12-20T21:14:00;100295.19;;;22.30;44.66
13456;BME280;6800;50.940;6.940;2022-12-20T21:18:00;100302.97;;;22.32;44.54
13456;BME280;6800;50.940;6.940;2022-12-20T21:22:00;100298.50;;;22.32;44.65
13456;BME280;6800;50.940;6.940;2022-12-20T21:26:01;100293.34;;;22.31;45.08
13456;BME280;6800;50.940;6.940;2022-12-20T21:30:01;100289.72;;;22.24;45.13
13456;BME280;6800;50.940;6.940;2022-12-20T21:34:02;100282.22;;;22.27;45.29
13456;BME280;6800;50.940;6.940;2022-12-20T21:38:02;100280.75;;;22.17;45.65
13456;BME280;6800;50.940;6.940;2022-12-20T21:42:03;100284.41;;;22.24;45.62
13456;BME280;6800;50.940;6.940;2022-12-20T21:46:04;100275.78;;;22.14;46.13
13456;BME280;6800;50.940;6.940;2022-12-20T21:50:05;100289.50;;;22.33;45.65
13456;BME280;6800;50.940;6.940;2022-12-20T21:54:05;100282.72;;;22.23;45.50
13456;BME280;6800;50.940;6.940;2022-12-20T21:58:05;100289.06;;;22.22;46.02
13456;BME280;6800;50.940;6.940;2022-12-20T22:02:06;100286.44;;;22.14;46.01
13456;BME280;6800;50.940;6.940;2022-12-20T22:06:06;100285.78;;;22.12;46.14
13456;BME280;6800;50.940;6.940;2022-12-20T22:10:07;100283.22;;;22.18;46.48
13456;BME280;6800;50.940;6.940;2022-12-20T22:14:10;100279.94;;;22.08;46.60
13456;BME280;6800;50.940;6.940;2022-12-20T22:18:11;100285.88;;;22.18;46.51
13456;BME280;6800;50.940;6.940;2022-12-20T22:22:11;100281.06;;;22.22;46.30
13456;BME280;6800;50.940;6.940;2022-12-20T22:26:14;100279.53;;;22.27;46.39
13456;BME280;6800;50.940;6.940;2022-12-20T22:30:15;100285.00;;;22.34;45.74
13456;BME280;6800;50.940;6.940;2022-12-20T22:34:15;100292.81;;;22.35;45.79
13456;BME280;6800;50.940;6.940;2022-12-20T22:38:15;100286.69;;;22.27;45.96
13456;BME280;6800;50.940;6.940;2022-12-20T22:42:15;100292.06;;;22.11;45.75
13456;BME280;6800;50.940;6.940;2022-12-20T22:46:16;100290.75;;;22.07;46.48
13456;BME280;6800;50.940;6.940;2022-12-20T22:50:17;100300.56;;;22.06;46.82
13456;BME280;6800;50.940;6.940;2022-12-20T22:54:17;100307.69;;;22.06;47.11
13456;BME280;6800;50.940;6.940;2022-12-20T22:58:18;100294.25;;;22.07;46.90
13456;BME280;6800;50.940;6.940;2022-12-20T23:02:18;100297.25;;;21.96;46.93
13456;BME280;6800;50.940;6.940;2022-12-20T23:06:19;100286.44;;;21.98;47.01
13456;BME280;6800;50.940;6.940;2022-12-20T23:10:20;100293.41;;;22.07;47.35
13456;BME280;6800;50.940;6.940;2022-12-20T23:14:39;100293.59;;;22.05;46.79
13456;BME280;6800;50.940;6.940;2022-12-20T23:18:59;100292.88;;;22.19;46.55
13456;BME280;6800;50.940;6.940;2022-12-20T23:23:00;100291.56;;;22.15;46.94
13456;BME280;6800;50.940;6.940;2022-12-20T23:27:00;100294.13;;;22.39;46.10
13456;BME280;6800;50.940;6.940;2022-12-20T23:31:05;100298.03;;;22.21;46.62